sensor_id;sensor_type;location;lat;lon;timestamp;P1;durP1;ratioP1;P2;durP2;ratioP2
33006;SDS011;19361;51.598;7.650;2023-10-09T00:02:18;15.25;;;8.82;;
33006;SDS011;19361;51.598;7.650;2023-10-09T00:07:18;16.05;;;9.38;;
33006;SDS011;19361;51.598;7.650;2023-10-09T00:12:20;14.23;;;9.20;;
33006;SDS011;19361;51.598;7.650;2023-10-09T00:17:25;14.95;;;9.32;;
33006;SDS011;19361;51.598;7.650;2023-10-09T00:22:31;21.60;;;9.82;;
33006;SDS011;19361;51.598;7.650;2023-10-09T00:27:38;15.88;;;8.35;;
33006;SDS011;19361;51.598;7.650;2023-10-09T00:32:43;16.45;;;9.00;;
33006;SDS011;19361;51.598;7.650;2023-10-09T00:38:00;16.00;;;9.90;;
33006;SDS011;19361;51.598;7.650;2023-10-09T00:43:06;12.93;;;9.70;;
33006;SDS011;19361;51.598;7.650;2023-10-09T00:48:13;16.30;;;9.00;;
33006;SDS011;19361;51.598;7.650;2023-10-09T00:53:22;15.00;;;9.85;;
33006;SDS011;19361;51.598;7.650;2023-10-09T00:58:32;14.30;;;9.18;;
33006;SDS011;19361;51.598;7.650;2023-10-09T01:03:36;14.55;;;9.45;;
33006;SDS011;19361;51.598;7.650;2023-10-09T01:08:40;18.40;;;10.45;;
33006;SDS011;19361;51.598;7.650;2023-10-09T01:13:41;24.52;;;10.73;;
33006;SDS011;19361;51.598;7.650;2023-10-09T01:18:52;21.25;;;11.40;;
33006;SDS011;19361;51.598;7.650;2023-10-09T01:23:57;20.58;;;10.65;;
33006;SDS011;19361;51.598;7.650;2023-10-09T01:29:03;22.27;;;11.10;;
33006;SDS011;19361;51.598;7.650;2023-10-09T01:34:04;16.30;;;10.43;;
33006;SDS011;19361;51.598;7.650;2023-10-09T01:39:09;20.42;;;11.00;;
33006;SDS011;19361;51.598;7.650;2023-10-09T01:44:23;18.40;;;11.23;;
33006;SDS011;19361;51.598;7.650;2023-10-09T01:49:30;23.33;;;11.43;;
33006;SDS011;19361;51.598;7.650;2023-10-09T01:54:31;24.45;;;10.48;;
33006;SDS011;19361;51.598;7.650;2023-10-09T01:59:36;20.27;;;10.40;;
33006;SDS011;19361;51.598;7.650;2023-10-09T02:04:43;19.53;;;10.87;;
33006;SDS011;19361;51.598;7.650;2023-10-09T02:09:45;18.58;;;11.05;;
33006;SDS011;19361;51.598;7.650;2023-10-09T02:14:47;21.77;;;10.70;;
33006;SDS011;19361;51.598;7.650;2023-10-09T02:19:48;17.58;;;10.77;;
33006;SDS011;19361;51.598;7.650;2023-10-09T02:24:49;20.70;;;10.40;;
33006;SDS011;19361;51.598;7.650;2023-10-09T02:29:50;18.33;;;10.75;;
33006;SDS011;19361;51.598;7.650;2023-10-09T02:34:51;21.02;;;12.18;;
33006;SDS011;19361;51.598;7.650;2023-10-09T02:39:53;20.70;;;11.82;;
33006;SDS011;19361;51.598;7.650;2023-10-09T02:44:55;19.52;;;10.65;;
33006;SDS011;19361;51.598;7.650;2023-10-09T02:49:58;24.80;;;12.82;;
33006;SDS011;19361;51.598;7.650;2023-10-09T02:55:07;19.15;;;12.25;;
33006;SDS011;19361;51.598;7.650;2023-10-09T03:00:12;20.83;;;11.57;;
33006;SDS011;19361;51.598;7.650;2023-10-09T03:05:18;20.08;;;10.85;;
33006;SDS011;19361;51.598;7.650;2023-10-09T03:10:23;20.08;;;11.23;;
33006;SDS011;19361;51.598;7.650;2023-10-09T03:15:25;18.30;;;11.45;;
33006;SDS011;19361;51.598;7.650;2023-10-09T03:20:26;18.17;;;11.85;;
33006;SDS011;19361;51.598;7.650;2023-10-09T03:25:27;18.65;;;11.43;;
33006;SDS011;19361;51.598;7.650;2023-10-09T03:30:28;21.90;;;13.38;;
33006;SDS011;19361;51.598;7.650;2023-10-09T03:35:32;27.77;;;16.08;;
33006;SDS011;19361;51.598;7.650;2023-10-09T03:40:36;31.27;;;18.33;;
33006;SDS011;19361;51.598;7.650;2023-10-09T03:45:39;34.50;;;18.67;;
33006;SDS011;19361;51.598;7.650;2023-10-09T03:50:52;23.48;;;15.60;;
33006;SDS011;19361;51.598;7.650;2023-10-09T03:56:08;22.02;;;13.13;;
33006;SDS011;19361;51.598;7.650;2023-10-09T04:11:41;14.23;;;8.77;;
33006;SDS011;19361;51.598;7.650;2023-10-09T04:16:43;13.45;;;8.40;;
33006;SDS011;19361;51.598;7.650;2023-10-09T04:22:12;13.63;;;9.27;;
33006;SDS011;19361;51.598;7.650;2023-10-09T04:27:26;12.40;;;8.60;;
33006;SDS011;19361;51.598;7.650;2023-10-09T04:32:35;15.35;;;8.73;;
33006;SDS011;19361;51.598;7.650;2023-10-09T04:37:40;18.83;;;9.25;;
33006;SDS011;19361;51.598;7.650;2023-10-09T04:42:44;14.07;;;9.40;;
33006;SDS011;19361;51.598;7.650;2023-10-09T04:47:58;19.30;;;9.63;;
33006;SDS011;19361;51.598;7.650;2023-10-09T04:53:06;14.57;;;9.75;;
33006;SDS011;19361;51.598;7.650;2023-10-09T04:58:18;16.60;;;10.43;;
33006;SDS011;19361;51.598;7.650;2023-10-09T05:03:24;13.82;;;9.32;;
33006;SDS011;19361;51.598;7.650;2023-10-09T05:08:30;15.15;;;10.35;;
33006;SDS011;19361;51.598;7.650;2023-10-09T05:13:33;15.95;;;9.02;;
33006;SDS011;19361;51.598;7.650;2023-10-09T05:18:40;16.30;;;9.40;;
33006;SDS011;19361;51.598;7.650;2023-10-09T05:23:42;16.38;;;8.93;;
33006;SDS011;19361;51.598;7.650;2023-10-09T05:29:05;15.25;;;9.35;;
33006;SDS011;19361;51.598;7.650;2023-10-09T05:34:24;15.82;;;9.48;;
33006;SDS011;19361;51.598;7.650;2023-10-09T05:39:33;15.80;;;9.32;;
33006;SDS011;19361;51.598;7.650;2023-10-09T05:44:40;12.85;;;8.77;;
33006;SDS011;19361;51.598;7.650;2023-10-09T05:50:16;15.18;;;9.20;;
33006;SDS011;19361;51.598;7.650;2023-10-09T05:55:17;16.33;;;9.52;;
33006;SDS011;19361;51.598;7.650;2023-10-09T06:00:27;17.20;;;8.77;;
33006;SDS011;19361;51.598;7.650;2023-10-09T06:05:46;14.95;;;8.98;;
33006;SDS011;19361;51.598;7.650;2023-10-09T06:10:56;13.25;;;8.02;;
33006;SDS011;19361;51.598;7.650;2023-10-09T06:16:26;20.58;;;10.05;;
33006;SDS011;19361;51.598;7.650;2023-10-09T06:21:41;15.98;;;9.25;;
33006;SDS011;19361;51.598;7.650;2023-10-09T06:26:42;12.90;;;8.45;;
33006;SDS011;19361;51.598;7.650;2023-10-09T06:31:59;14.82;;;8.52;;
33006;SDS011;19361;51.598;7.650;2023-10-09T06:37:20;18.48;;;8.77;;
33006;SDS011;19361;51.598;7.650;2023-10-09T06:42:24;16.95;;;8.63;;
33006;SDS011;19361;51.598;7.650;2023-10-09T06:47:32;16.00;;;9.57;;
33006;SDS011;19361;51.598;7.650;2023-10-09T06:52:42;15.38;;;9.60;;
33006;SDS011;19361;51.598;7.650;2023-10-09T06:58:18;16.45;;;9.35;;
33006;SDS011;19361;51.598;7.650;2023-10-09T07:03:29;19.92;;;9.70;;
33006;SDS011;19361;51.598;7.650;2023-10-09T07:08:29;14.98;;;9.32;;
33006;SDS011;19361;51.598;7.650;2023-10-09T07:13:37;15.43;;;9.13;;
33006;SDS011;19361;51.598;7.650;2023-10-09T07:18:37;15.35;;;9.38;;
33006;SDS011;19361;51.598;7.650;2023-10-09T07:23:49;16.92;;;10.32;;
33006;SDS011;19361;51.598;7.650;2023-10-09T07:28:55;17.70;;;9.52;;
33006;SDS011;19361;51.598;7.650;2023-10-09T07:34:15;15.43;;;9.35;;
33006;SDS011;19361;51.598;7.650;2023-10-09T07:39:32;16.77;;;9.70;;
33006;SDS011;19361;51.598;7.650;2023-10-09T07:44:34;19.80;;;9.45;;
33006;SDS011;19361;51.598;7.650;2023-10-09T07:49:37;16.48;;;9.90;;
33006;SDS011;19361;51.598;7.650;2023-10-09T07:54:37;13.15;;;8.68;;
33006;SDS011;19361;51.598;7.650;2023-10-09T07:59:43;16.75;;;9.32;;
33006;SDS011;19361;51.598;7.650;2023-10-09T08:05:11;15.52;;;9.30;;
33006;SDS011;19361;51.598;7.650;2023-10-09T08:10:22;18.77;;;10.07;;
33006;SDS011;19361;51.598;7.650;2023-10-09T08:15:23;13.27;;;9.23;;
33006;SDS011;19361;51.598;7.650;2023-10-09T08:20:45;15.35;;;10.00;;
33006;SDS011;19361;51.598;7.650;2023-10-09T08:26:01;16.58;;;9.38;;
33006;SDS011;19361;51.598;7.650;2023-10-09T08:31:16;16.70;;;10.10;;
33006;SDS011;19361;51.598;7.650;2023-10-09T08:36:45;18.58;;;10.00;;
33006;SDS011;19361;51.598;7.650;2023-10-09T08:41:52;17.38;;;10.80;;
33006;SDS011;19361;51.598;7.650;2023-10-09T08:46:54;18.40;;;9.50;;
33006;SDS011;19361;51.598;7.650;2023-10-09T08:51:57;20.23;;;10.98;;
33006;SDS011;19361;51.598;7.650;2023-10-09T08:57:03;16.20;;;8.90;;
33006;SDS011;19361;51.598;7.650;2023-10-09T09:02:04;18.15;;;10.90;;
33006;SDS011;19361;51.598;7.650;2023-10-09T09:07:27;19.15;;;10.82;;
33006;SDS011;19361;51.598;7.650;2023-10-09T09:12:29;19.10;;;11.20;;
33006;SDS011;19361;51.598;7.650;2023-10-09T09:17:37;20.10;;;11.85;;
33006;SDS011;19361;51.598;7.650;2023-10-09T09:22:51;16.58;;;10.55;;
33006;SDS011;19361;51.598;7.650;2023-10-09T09:27:56;18.75;;;10.52;;
33006;SDS011;19361;51.598;7.650;2023-10-09T09:32:57;19.77;;;10.73;;
33006;SDS011;19361;51.598;7.650;2023-10-09T09:38:16;22.40;;;10.60;;
33006;SDS011;19361;51.598;7.650;2023-10-09T09:43:17;14.68;;;9.80;;
33006;SDS011;19361;51.598;7.650;2023-10-09T09:48:25;21.30;;;10.00;;
33006;SDS011;19361;51.598;7.650;2023-10-09T09:53:26;22.30;;;10.45;;
33006;SDS011;19361;51.598;7.650;2023-10-09T09:58:27;15.90;;;9.93;;
33006;SDS011;19361;51.598;7.650;2023-10-09T10:03:39;17.38;;;9.45;;
33006;SDS011;19361;51.598;7.650;2023-10-09T10:08:47;16.75;;;9.60;;
33006;SDS011;19361;51.598;7.650;2023-10-09T10:24:00;17.88;;;9.82;;
33006;SDS011;19361;51.598;7.650;2023-10-09T10:29:18;15.27;;;10.30;;
33006;SDS011;19361;51.598;7.650;2023-10-09T10:34:24;14.43;;;9.23;;
33006;SDS011;19361;51.598;7.650;2023-10-09T10:39:25;16.38;;;9.45;;
33006;SDS011;19361;51.598;7.650;2023-10-09T10:44:42;18.27;;;10.25;;
33006;SDS011;19361;51.598;7.650;2023-10-09T10:49:44;13.88;;;9.07;;
33006;SDS011;19361;51.598;7.650;2023-10-09T10:54:49;22.73;;;10.77;;
33006;SDS011;19361;51.598;7.650;2023-10-09T11:00:18;15.27;;;9.45;;
33006;SDS011;19361;51.598;7.650;2023-10-09T11:05:37;14.68;;;9.43;;
33006;SDS011;19361;51.598;7.650;2023-10-09T11:10:40;15.63;;;9.70;;
33006;SDS011;19361;51.598;7.650;2023-10-09T11:15:49;15.13;;;9.27;;
33006;SDS011;19361;51.598;7.650;2023-10-09T11:21:14;14.52;;;9.85;;
33006;SDS011;19361;51.598;7.650;2023-10-09T11:26:15;17.92;;;9.38;;
33006;SDS011;19361;51.598;7.650;2023-10-09T11:31:26;18.48;;;10.40;;
33006;SDS011;19361;51.598;7.650;2023-10-09T11:36:26;15.93;;;10.40;;
33006;SDS011;19361;51.598;7.650;2023-10-09T11:41:39;15.43;;;10.10;;
33006;SDS011;19361;51.598;7.650;2023-10-09T11:46:41;16.67;;;9.93;;
33006;SDS011;19361;51.598;7.650;2023-10-09T11:52:07;19.63;;;11.25;;
33006;SDS011;19361;51.598;7.650;2023-10-09T11:57:08;20.17;;;10.77;;
33006;SDS011;19361;51.598;7.650;2023-10-09T12:02:09;23.10;;;10.00;;
33006;SDS011;19361;51.598;7.650;2023-10-09T12:07:12;16.27;;;10.07;;
33006;SDS011;19361;51.598;7.650;2023-10-09T12:12:13;19.05;;;10.05;;
33006;SDS011;19361;51.598;7.650;2023-10-09T12:17:14;18.13;;;10.15;;
33006;SDS011;19361;51.598;7.650;2023-10-09T12:22:14;17.33;;;8.98;;
33006;SDS011;19361;51.598;7.650;2023-10-09T12:27:16;16.95;;;9.80;;
33006;SDS011;19361;51.598;7.650;2023-10-09T12:32:20;15.63;;;9.30;;
33006;SDS011;19361;51.598;7.650;2023-10-09T12:37:20;15.82;;;8.60;;
33006;SDS011;19361;51.598;7.650;2023-10-09T12:42:21;15.10;;;8.95;;
33006;SDS011;19361;51.598;7.650;2023-10-09T12:47:22;16.52;;;9.38;;
33006;SDS011;19361;51.598;7.650;2023-10-09T12:52:22;19.80;;;10.57;;
33006;SDS011;19361;51.598;7.650;2023-10-09T12:57:29;16.02;;;9.60;;
33006;SDS011;19361;51.598;7.650;2023-10-09T13:02:30;15.75;;;9.45;;
33006;SDS011;19361;51.598;7.650;2023-10-09T13:07:31;11.90;;;7.90;;
33006;SDS011;19361;51.598;7.650;2023-10-09T13:12:31;16.25;;;8.90;;
33006;SDS011;19361;51.598;7.650;2023-10-09T13:17:32;15.65;;;8.52;;
33006;SDS011;19361;51.598;7.650;2023-10-09T13:22:33;40.58;;;16.25;;
33006;SDS011;19361;51.598;7.650;2023-10-09T13:27:33;15.95;;;9.73;;
33006;SDS011;19361;51.598;7.650;2023-10-09T13:32:34;14.65;;;9.73;;
33006;SDS011;19361;51.598;7.650;2023-10-09T13:37:36;22.45;;;10.10;;
33006;SDS011;19361;51.598;7.650;2023-10-09T13:42:37;15.70;;;9.30;;
33006;SDS011;19361;51.598;7.650;2023-10-09T13:47:38;16.33;;;8.82;;
33006;SDS011;19361;51.598;7.650;2023-10-09T13:52:39;16.35;;;10.05;;
33006;SDS011;19361;51.598;7.650;2023-10-09T13:57:40;18.42;;;9.30;;
33006;SDS011;19361;51.598;7.650;2023-10-09T14:02:43;15.88;;;9.00;;
33006;SDS011;19361;51.598;7.650;2023-10-09T14:07:46;20.80;;;9.75;;
33006;SDS011;19361;51.598;7.650;2023-10-09T14:12:46;15.88;;;9.05;;
33006;SDS011;19361;51.598;7.650;2023-10-09T14:17:53;13.97;;;9.50;;
33006;SDS011;19361;51.598;7.650;2023-10-09T14:22:56;17.00;;;10.18;;
33006;SDS011;19361;51.598;7.650;2023-10-09T14:27:57;14.10;;;9.30;;
33006;SDS011;19361;51.598;7.650;2023-10-09T14:32:58;22.02;;;10.77;;
33006;SDS011;19361;51.598;7.650;2023-10-09T14:38:01;14.27;;;9.65;;
33006;SDS011;19361;51.598;7.650;2023-10-09T14:43:05;27.48;;;11.05;;
33006;SDS011;19361;51.598;7.650;2023-10-09T14:48:07;14.05;;;9.35;;
33006;SDS011;19361;51.598;7.650;2023-10-09T14:53:11;19.75;;;10.13;;
33006;SDS011;19361;51.598;7.650;2023-10-09T14:58:13;20.95;;;10.57;;
33006;SDS011;19361;51.598;7.650;2023-10-09T15:03:15;18.02;;;10.50;;
33006;SDS011;19361;51.598;7.650;2023-10-09T15:08:19;20.60;;;11.73;;
33006;SDS011;19361;51.598;7.650;2023-10-09T15:13:20;17.58;;;9.77;;
33006;SDS011;19361;51.598;7.650;2023-10-09T15:18:21;18.23;;;10.88;;
33006;SDS011;19361;51.598;7.650;2023-10-09T15:23:22;16.05;;;10.30;;
33006;SDS011;19361;51.598;7.650;2023-10-09T15:28:23;16.70;;;10.30;;
33006;SDS011;19361;51.598;7.650;2023-10-09T15:33:24;24.85;;;11.07;;
33006;SDS011;19361;51.598;7.650;2023-10-09T15:38:30;17.13;;;10.32;;
33006;SDS011;19361;51.598;7.650;2023-10-09T15:43:31;17.38;;;9.65;;
33006;SDS011;19361;51.598;7.650;2023-10-09T15:48:33;17.92;;;9.88;;
33006;SDS011;19361;51.598;7.650;2023-10-09T15:53:36;20.13;;;10.63;;
33006;SDS011;19361;51.598;7.650;2023-10-09T15:58:38;24.52;;;10.20;;
33006;SDS011;19361;51.598;7.650;2023-10-09T16:03:43;16.52;;;10.40;;
33006;SDS011;19361;51.598;7.650;2023-10-09T16:08:47;22.02;;;10.43;;
33006;SDS011;19361;51.598;7.650;2023-10-09T16:13:50;18.95;;;10.40;;
33006;SDS011;19361;51.598;7.650;2023-10-09T16:18:53;18.27;;;11.00;;
33006;SDS011;19361;51.598;7.650;2023-10-09T16:24:00;17.40;;;10.68;;
33006;SDS011;19361;51.598;7.650;2023-10-09T16:29:01;20.17;;;10.35;;
33006;SDS011;19361;51.598;7.650;2023-10-09T16:34:02;18.00;;;11.10;;
33006;SDS011;19361;51.598;7.650;2023-10-09T16:39:04;22.58;;;11.15;;
33006;SDS011;19361;51.598;7.650;2023-10-09T16:44:15;15.75;;;10.40;;
33006;SDS011;19361;51.598;7.650;2023-10-09T16:49:19;16.15;;;10.40;;
33006;SDS011;19361;51.598;7.650;2023-10-09T16:54:25;15.77;;;10.38;;
33006;SDS011;19361;51.598;7.650;2023-10-09T16:59:26;15.13;;;9.93;;
33006;SDS011;19361;51.598;7.650;2023-10-09T17:04:27;19.45;;;11.70;;
33006;SDS011;19361;51.598;7.650;2023-10-09T17:09:29;20.58;;;11.98;;
33006;SDS011;19361;51.598;7.650;2023-10-09T17:14:30;31.77;;;12.93;;
33006;SDS011;19361;51.598;7.650;2023-10-09T17:19:34;21.23;;;11.40;;
33006;SDS011;19361;51.598;7.650;2023-10-09T17:24:38;26.83;;;11.93;;
33006;SDS011;19361;51.598;7.650;2023-10-09T17:29:41;22.60;;;13.55;;
33006;SDS011;19361;51.598;7.650;2023-10-09T17:34:42;19.38;;;11.48;;
33006;SDS011;19361;51.598;7.650;2023-10-09T17:39:43;23.55;;;13.32;;
33006;SDS011;19361;51.598;7.650;2023-10-09T17:44:44;21.48;;;11.80;;
33006;SDS011;19361;51.598;7.650;2023-10-09T17:49:45;22.90;;;12.73;;
33006;SDS011;19361;51.598;7.650;2023-10-09T17:54:46;27.08;;;13.52;;
33006;SDS011;19361;51.598;7.650;2023-10-09T17:59:47;21.85;;;11.90;;
33006;SDS011;19361;51.598;7.650;2023-10-09T18:04:48;19.65;;;12.00;;
33006;SDS011;19361;51.598;7.650;2023-10-09T18:09:49;18.27;;;11.48;;
33006;SDS011;19361;51.598;7.650;2023-10-09T18:14:52;19.20;;;12.15;;
33006;SDS011;19361;51.598;7.650;2023-10-09T18:19:59;17.25;;;10.85;;
33006;SDS011;19361;51.598;7.650;2023-10-09T18:25:00;17.67;;;11.32;;
33006;SDS011;19361;51.598;7.650;2023-10-09T18:30:00;20.15;;;12.00;;
33006;SDS011;19361;51.598;7.650;2023-10-09T18:35:01;18.58;;;11.57;;
33006;SDS011;19361;51.598;7.650;2023-10-09T18:40:02;24.92;;;13.25;;
33006;SDS011;19361;51.598;7.650;2023-10-09T18:45:06;19.88;;;12.77;;
33006;SDS011;19361;51.598;7.650;2023-10-09T18:50:09;21.75;;;13.15;;
33006;SDS011;19361;51.598;7.650;2023-10-09T18:55:12;18.83;;;12.63;;
33006;SDS011;19361;51.598;7.650;2023-10-09T19:00:12;20.40;;;13.32;;
33006;SDS011;19361;51.598;7.650;2023-10-09T19:05:20;28.80;;;15.13;;
33006;SDS011;19361;51.598;7.650;2023-10-09T19:10:21;19.52;;;13.20;;
33006;SDS011;19361;51.598;7.650;2023-10-09T19:15:21;28.55;;;14.90;;
33006;SDS011;19361;51.598;7.650;2023-10-09T19:20:24;23.23;;;13.57;;
33006;SDS011;19361;51.598;7.650;2023-10-09T19:25:25;20.83;;;14.07;;
33006;SDS011;19361;51.598;7.650;2023-10-09T19:30:27;22.65;;;13.27;;
33006;SDS011;19361;51.598;7.650;2023-10-09T19:35:30;18.88;;;12.95;;
33006;SDS011;19361;51.598;7.650;2023-10-09T19:40:33;25.88;;;14.30;;
33006;SDS011;19361;51.598;7.650;2023-10-09T19:45:34;24.83;;;14.32;;
33006;SDS011;19361;51.598;7.650;2023-10-09T19:50:35;20.75;;;14.35;;
33006;SDS011;19361;51.598;7.650;2023-10-09T19:55:39;22.00;;;12.80;;
33006;SDS011;19361;51.598;7.650;2023-10-09T20:00:43;26.93;;;14.63;;
33006;SDS011;19361;51.598;7.650;2023-10-09T20:05:45;22.17;;;15.35;;
33006;SDS011;19361;51.598;7.650;2023-10-09T20:10:48;21.92;;;13.18;;
33006;SDS011;19361;51.598;7.650;2023-10-09T20:15:56;24.27;;;14.95;;
33006;SDS011;19361;51.598;7.650;2023-10-09T20:20:59;22.15;;;14.30;;
33006;SDS011;19361;51.598;7.650;2023-10-09T20:26:02;23.83;;;13.02;;
33006;SDS011;19361;51.598;7.650;2023-10-09T20:31:04;24.05;;;14.60;;
33006;SDS011;19361;51.598;7.650;2023-10-09T20:36:05;23.13;;;14.80;;
33006;SDS011;19361;51.598;7.650;2023-10-09T20:41:15;23.17;;;13.27;;
33006;SDS011;19361;51.598;7.650;2023-10-09T20:46:16;24.90;;;13.77;;
33006;SDS011;19361;51.598;7.650;2023-10-09T20:51:17;24.23;;;14.02;;
33006;SDS011;19361;51.598;7.650;2023-10-09T20:56:18;19.67;;;12.40;;
33006;SDS011;19361;51.598;7.650;2023-10-09T21:01:18;22.15;;;14.63;;
33006;SDS011;19361;51.598;7.650;2023-10-09T21:06:19;26.88;;;16.05;;
33006;SDS011;19361;51.598;7.650;2023-10-09T21:11:21;22.70;;;13.45;;
33006;SDS011;19361;51.598;7.650;2023-10-09T21:16:21;24.10;;;15.18;;
33006;SDS011;19361;51.598;7.650;2023-10-09T21:21:22;25.80;;;15.10;;
33006;SDS011;19361;51.598;7.650;2023-10-09T21:26:23;25.65;;;14.60;;
33006;SDS011;19361;51.598;7.650;2023-10-09T21:31:26;23.42;;;14.68;;
33006;SDS011;19361;51.598;7.650;2023-10-09T21:36:26;22.58;;;14.40;;
33006;SDS011;19361;51.598;7.650;2023-10-09T21:41:27;25.30;;;15.43;;
33006;SDS011;19361;51.598;7.650;2023-10-09T21:46:28;24.20;;;15.40;;
33006;SDS011;19361;51.598;7.650;2023-10-09T21:51:28;20.05;;;14.10;;
33006;SDS011;19361;51.598;7.650;2023-10-09T21:56:29;21.15;;;14.40;;
33006;SDS011;19361;51.598;7.650;2023-10-09T22:01:30;21.75;;;14.52;;
33006;SDS011;19361;51.598;7.650;2023-10-09T22:06:30;24.08;;;14.43;;
33006;SDS011;19361;51.598;7.650;2023-10-09T22:11:31;22.60;;;14.77;;
33006;SDS011;19361;51.598;7.650;2023-10-09T22:16:32;21.27;;;14.25;;
33006;SDS011;19361;51.598;7.650;2023-10-09T22:21:39;24.25;;;15.90;;
33006;SDS011;19361;51.598;7.650;2023-10-09T22:26:41;27.63;;;16.45;;
33006;SDS011;19361;51.598;7.650;2023-10-09T22:31:41;25.27;;;16.63;;
33006;SDS011;19361;51.598;7.650;2023-10-09T22:36:46;25.10;;;16.38;;
33006;SDS011;19361;51.598;7.650;2023-10-09T22:41:47;27.35;;;15.68;;
33006;SDS011;19361;51.598;7.650;2023-10-09T22:46:49;25.30;;;16.75;;
33006;SDS011;19361;51.598;7.650;2023-10-09T22:51:51;25.42;;;16.30;;
33006;SDS011;19361;51.598;7.650;2023-10-09T22:56:52;27.70;;;16.80;;
33006;SDS011;19361;51.598;7.650;2023-10-09T23:01:53;25.92;;;17.20;;
33006;SDS011;19361;51.598;7.650;2023-10-09T23:06:59;28.33;;;16.20;;
33006;SDS011;19361;51.598;7.650;2023-10-09T23:12:16;30.38;;;17.65;;
33006;SDS011;19361;51.598;7.650;2023-10-09T23:17:35;25.23;;;15.82;;
33006;SDS011;19361;51.598;7.650;2023-10-09T23:22:46;28.23;;;17.23;;
33006;SDS011;19361;51.598;7.650;2023-10-09T23:27:47;24.15;;;15.38;;
33006;SDS011;19361;51.598;7.650;2023-10-09T23:32:48;25.70;;;15.27;;
33006;SDS011;19361;51.598;7.650;2023-10-09T23:38:11;25.00;;;16.77;;
33006;SDS011;19361;51.598;7.650;2023-10-09T23:43:33;23.38;;;17.15;;
33006;SDS011;19361;51.598;7.650;2023-10-09T23:48:35;28.52;;;17.45;;
33006;SDS011;19361;51.598;7.650;2023-10-09T23:53:37;23.88;;;15.27;;
33006;SDS011;19361;51.598;7.650;2023-10-09T23:58:46;29.08;;;16.25;;
